createdAt,value
2023-09-22T00:00:19.152Z,101255.00
2023-09-22T00:02:48.547Z,101256.00
2023-09-22T00:05:17.759Z,101257.00
2023-09-22T00:07:47.195Z,101256.00
2023-09-22T00:10:17.328Z,101248.00
2023-09-22T00:12:47.748Z,101255.00
2023-09-22T00:15:17.410Z,101254.00
2023-09-22T00:17:46.428Z,101247.00
2023-09-22T00:20:16.510Z,101251.00
2023-09-22T00:22:45.567Z,101255.00
2023-09-22T00:25:14.911Z,101250.00
2023-09-22T00:27:45.150Z,101255.00
2023-09-22T00:30:14.132Z,101253.00
2023-09-22T00:32:43.252Z,101254.00
2023-09-22T00:35:13.712Z,101256.00
2023-09-22T00:37:42.711Z,101253.00
2023-09-22T00:40:13.759Z,101257.00
2023-09-22T00:42:42.887Z,101251.00
2023-09-22T00:45:15.358Z,101249.00
2023-09-22T00:47:44.276Z,101253.00
2023-09-22T00:50:13.746Z,101255.00
2023-09-22T00:52:43.427Z,101245.00
2023-09-22T00:55:12.471Z,101250.00
2023-09-22T00:57:42.040Z,101250.00
2023-09-22T01:00:14.728Z,101253.00
2023-09-22T01:02:43.636Z,101248.00
2023-09-22T01:05:12.725Z,101247.00
2023-09-22T01:07:41.766Z,101254.00
2023-09-22T01:10:11.861Z,101245.00
2023-09-22T01:12:40.852Z,101247.00
2023-09-22T01:15:12.881Z,101247.00
2023-09-22T01:17:41.745Z,101255.00
2023-09-22T01:20:11.780Z,101253.00
2023-09-22T01:22:44.797Z,101250.00
2023-09-22T01:25:13.996Z,101248.00
2023-09-22T01:27:42.901Z,101238.00
2023-09-22T01:30:16.842Z,101243.00
2023-09-22T01:32:45.639Z,101232.00
2023-09-22T01:35:14.421Z,101235.00
2023-09-22T01:37:56.463Z,101231.00
2023-09-22T01:40:25.156Z,101228.00
2023-09-22T01:42:55.280Z,101227.00
2023-09-22T01:45:24.292Z,101227.00
2023-09-22T01:47:55.380Z,101225.00
2023-09-22T01:50:24.274Z,101232.00
2023-09-22T01:52:55.206Z,101235.00
2023-09-22T01:55:24.158Z,101238.00
2023-09-22T01:57:53.848Z,101225.00
2023-09-22T02:00:23.100Z,101239.00
2023-09-22T02:02:53.179Z,101232.00
2023-09-22T02:05:22.165Z,101239.00
2023-09-22T02:07:51.431Z,101236.00
2023-09-22T02:10:21.981Z,101233.00
2023-09-22T02:12:51.323Z,101243.00
2023-09-22T02:15:20.453Z,101236.00
2023-09-22T02:17:49.669Z,101236.00
2023-09-22T02:20:23.369Z,101237.00
2023-09-22T02:22:56.868Z,101235.00
2023-09-22T02:25:27.974Z,101233.00
2023-09-22T02:28:00.195Z,101231.00
2023-09-22T02:30:29.272Z,101235.00
2023-09-22T02:32:58.249Z,101231.00
2023-09-22T02:35:27.113Z,101225.00
2023-09-22T02:37:57.113Z,101224.00
2023-09-22T02:40:27.204Z,101236.00
2023-09-22T02:42:56.103Z,101234.00
2023-09-22T02:45:25.327Z,101243.00
2023-09-22T02:47:56.035Z,101237.00
2023-09-22T02:50:24.968Z,101242.00
2023-09-22T02:52:54.135Z,101237.00
2023-09-22T02:55:22.850Z,101236.00
2023-09-22T02:57:55.452Z,101238.00
2023-09-22T03:00:24.466Z,101232.00
2023-09-22T03:02:54.663Z,101234.00
2023-09-22T03:05:23.577Z,101234.00
2023-09-22T03:07:56.496Z,101232.00
2023-09-22T03:10:26.376Z,101233.00
2023-09-22T03:12:59.241Z,101227.00
2023-09-22T03:15:28.767Z,101239.00
2023-09-22T03:18:00.540Z,101233.00
2023-09-22T03:20:30.103Z,101241.00
2023-09-22T03:22:59.485Z,101238.00
2023-09-22T03:25:28.763Z,101233.00
2023-09-22T03:27:59.180Z,101235.00
2023-09-22T03:30:28.299Z,101229.00
2023-09-22T03:33:00.239Z,101230.00
2023-09-22T03:35:29.883Z,101226.00
2023-09-22T03:38:00.586Z,101224.00
2023-09-22T03:40:34.017Z,101234.00
2023-09-22T03:43:04.995Z,101233.00
2023-09-22T03:45:36.574Z,101232.00
2023-09-22T03:48:07.104Z,101233.00
2023-09-22T03:50:37.972Z,101234.00
2023-09-22T03:53:06.938Z,101230.00
2023-09-22T03:55:35.773Z,101237.00
2023-09-22T03:58:07.720Z,101233.00
2023-09-22T04:00:36.571Z,101226.00
2023-09-22T04:03:09.339Z,101227.00
2023-09-22T04:05:39.161Z,101230.00
2023-09-22T04:08:08.302Z,101232.00
2023-09-22T04:10:37.064Z,101233.00
2023-09-22T04:13:07.499Z,101237.00
2023-09-22T04:15:37.023Z,101237.00
2023-09-22T04:18:08.330Z,101238.00
2023-09-22T04:20:38.866Z,101238.00
2023-09-22T04:23:07.755Z,101237.00
2023-09-22T04:25:39.173Z,101238.00
2023-09-22T04:28:14.249Z,101237.00
2023-09-22T04:30:43.524Z,101245.00
2023-09-22T04:33:13.973Z,101236.00
2023-09-22T04:35:45.581Z,101229.00
2023-09-22T04:38:15.797Z,101235.00
2023-09-22T04:40:45.819Z,101231.00
2023-09-22T04:43:18.393Z,101236.00
2023-09-22T04:45:47.625Z,101239.00
2023-09-22T04:48:17.619Z,101234.00
2023-09-22T04:50:56.024Z,101234.00
2023-09-22T04:53:25.631Z,101234.00
2023-09-22T04:56:04.731Z,101236.00
2023-09-22T04:58:39.317Z,101245.00
2023-09-22T05:01:09.883Z,101237.00
2023-09-22T05:03:41.954Z,101240.00
2023-09-22T05:06:11.186Z,101241.00
2023-09-22T05:08:42.383Z,101245.00
2023-09-22T05:11:12.416Z,101242.00
2023-09-22T05:13:42.694Z,101240.00
2023-09-22T05:16:19.965Z,101243.00
2023-09-22T05:18:51.379Z,101250.00
2023-09-22T05:21:20.722Z,101249.00
2023-09-22T05:23:49.792Z,101247.00
2023-09-22T05:26:27.520Z,101243.00
2023-09-22T05:29:00.788Z,101247.00
2023-09-22T05:31:30.007Z,101240.00
2023-09-22T05:34:01.901Z,101241.00
2023-09-22T05:36:31.341Z,101255.00
2023-09-22T05:39:00.430Z,101251.00
2023-09-22T05:41:33.710Z,101249.00
2023-09-22T05:44:03.977Z,101255.00
2023-09-22T05:46:36.392Z,101259.00
2023-09-22T05:49:08.206Z,101268.00
2023-09-22T05:51:40.073Z,101262.00
2023-09-22T05:54:12.020Z,101264.00
2023-09-22T05:56:41.521Z,101267.00
2023-09-22T05:59:11.821Z,101257.00
2023-09-22T06:01:40.732Z,101253.00
2023-09-22T06:04:10.890Z,101257.00
2023-09-22T06:06:39.835Z,101263.00
2023-09-22T06:09:12.334Z,101264.00
2023-09-22T06:11:42.288Z,101263.00
2023-09-22T06:14:13.604Z,101264.00
2023-09-22T06:16:42.531Z,101261.00
2023-09-22T06:19:12.374Z,101263.00
2023-09-22T06:21:41.965Z,101260.00
2023-09-22T06:24:12.468Z,101262.00
2023-09-22T06:26:41.677Z,101259.00
2023-09-22T06:29:11.836Z,101255.00
2023-09-22T06:31:40.661Z,101251.00
2023-09-22T06:34:12.062Z,101245.00
2023-09-22T06:36:40.962Z,101257.00
2023-09-22T06:39:09.847Z,101250.00
2023-09-22T06:41:38.755Z,101253.00
2023-09-22T06:44:14.145Z,101248.00
2023-09-22T06:46:43.374Z,101257.00
2023-09-22T06:49:12.319Z,101254.00
2023-09-22T06:51:41.116Z,101257.00
2023-09-22T06:54:12.105Z,101255.00
2023-09-22T06:56:50.007Z,101257.00
2023-09-22T06:59:23.172Z,101259.00
2023-09-22T07:01:52.129Z,101255.00
2023-09-22T07:04:22.641Z,101260.00
2023-09-22T07:06:54.627Z,101249.00
2023-09-22T07:09:23.907Z,101258.00
2023-09-22T07:11:53.200Z,101249.00
2023-09-22T07:14:26.055Z,101257.00
2023-09-22T07:16:55.423Z,101265.00
2023-09-22T07:19:24.338Z,101263.00
2023-09-22T07:21:53.180Z,101264.00
2023-09-22T07:24:22.050Z,101264.00
2023-09-22T07:26:51.520Z,101267.00
2023-09-22T07:29:20.317Z,101265.00
2023-09-22T07:31:51.083Z,101264.00
2023-09-22T07:34:19.914Z,101271.00
2023-09-22T07:36:53.677Z,101270.00
2023-09-22T07:39:27.828Z,101276.00
2023-09-22T07:41:59.521Z,101268.00
2023-09-22T07:44:28.478Z,101267.00
2023-09-22T07:47:02.272Z,101268.00
2023-09-22T07:49:31.456Z,101271.00
2023-09-22T07:52:00.637Z,101270.00
2023-09-22T07:54:32.533Z,101263.00
2023-09-22T07:57:03.145Z,101275.00
2023-09-22T07:59:32.584Z,101272.00
2023-09-22T08:02:06.609Z,101273.00
2023-09-22T08:04:36.253Z,101272.00
2023-09-22T08:07:07.081Z,101281.00
2023-09-22T08:09:38.416Z,101286.00
2023-09-22T08:12:11.859Z,101283.00
2023-09-22T08:14:56.788Z,101290.00
2023-09-22T08:17:32.505Z,101284.00
2023-09-22T08:20:02.034Z,101276.00
2023-09-22T08:22:32.777Z,101281.00
2023-09-22T08:25:02.603Z,101286.00
2023-09-22T08:27:37.188Z,101282.00
2023-09-22T08:30:12.173Z,101289.00
2023-09-22T08:32:45.919Z,101283.00
2023-09-22T08:35:17.860Z,101286.00
2023-09-22T08:37:47.204Z,101285.00
2023-09-22T08:40:19.305Z,101285.00
2023-09-22T08:42:54.748Z,101294.00
2023-09-22T08:45:24.021Z,101291.00
2023-09-22T08:47:54.621Z,101289.00
2023-09-22T08:50:24.747Z,101285.00
2023-09-22T08:52:54.884Z,101283.00
2023-09-22T08:55:28.973Z,101287.00
2023-09-22T08:57:57.939Z,101280.00
2023-09-22T09:00:30.831Z,101276.00
2023-09-22T09:03:11.098Z,101273.00
2023-09-22T09:05:42.595Z,101275.00
2023-09-22T09:08:17.052Z,101278.00
2023-09-22T09:10:49.547Z,101266.00
2023-09-22T09:13:25.145Z,101264.00
2023-09-22T09:16:07.862Z,101268.00
2023-09-22T09:18:38.606Z,101270.00
2023-09-22T09:21:11.614Z,101273.00
2023-09-22T09:23:54.427Z,101267.00
2023-09-22T09:26:29.208Z,101267.00
2023-09-22T09:29:00.083Z,101266.00
2023-09-22T09:31:47.257Z,101266.00
2023-09-22T09:34:18.412Z,101262.00
2023-09-22T09:36:47.374Z,101258.00
2023-09-22T09:39:16.531Z,101260.00
2023-09-22T09:41:46.132Z,101261.00
2023-09-22T09:44:17.725Z,101262.00
2023-09-22T09:46:46.859Z,101256.00
2023-09-22T09:49:17.960Z,101259.00
2023-09-22T09:51:54.036Z,101265.00
2023-09-22T09:54:28.390Z,101260.00
2023-09-22T09:57:00.308Z,101260.00
2023-09-22T09:59:29.286Z,101254.00
2023-09-22T10:01:58.446Z,101261.00
2023-09-22T10:04:30.682Z,101255.00
2023-09-22T10:07:00.596Z,101257.00
2023-09-22T10:09:31.995Z,101259.00
2023-09-22T10:12:04.869Z,101256.00
2023-09-22T10:14:48.853Z,101258.00
2023-09-22T10:17:24.116Z,101254.00
2023-09-22T10:19:58.393Z,101256.00
2023-09-22T10:22:29.789Z,101259.00
2023-09-22T10:25:35.033Z,101259.00
2023-09-22T10:28:08.025Z,101252.00
2023-09-22T10:31:05.404Z,101250.00
2023-09-22T10:33:35.024Z,101253.00
2023-09-22T10:36:08.215Z,101255.00
2023-09-22T10:38:59.738Z,101246.00
2023-09-22T10:41:29.904Z,101247.00
2023-09-22T10:44:03.297Z,101246.00
2023-09-22T10:46:32.787Z,101243.00
2023-09-22T10:49:02.315Z,101243.00
2023-09-22T10:51:47.765Z,101250.00
2023-09-22T10:54:19.381Z,101243.00
2023-09-22T10:56:49.067Z,101237.00
2023-09-22T10:59:18.259Z,101244.00
2023-09-22T11:01:48.209Z,101239.00
2023-09-22T11:04:18.839Z,101240.00
2023-09-22T11:06:49.398Z,101255.00
2023-09-22T11:09:18.375Z,101239.00
2023-09-22T11:11:48.443Z,101240.00
2023-09-22T11:14:22.491Z,101240.00
2023-09-22T11:16:51.771Z,101231.00
2023-09-22T11:19:20.759Z,101227.00
2023-09-22T11:21:52.478Z,101237.00
2023-09-22T11:24:22.276Z,101229.00
2023-09-22T11:26:51.237Z,101229.00
2023-09-22T11:29:20.111Z,101224.00
2023-09-22T11:31:51.918Z,101224.00
2023-09-22T11:34:24.392Z,101228.00
2023-09-22T11:36:56.455Z,101226.00
2023-09-22T11:39:31.282Z,101229.00
2023-09-22T11:42:03.080Z,101226.00
2023-09-22T11:44:31.945Z,101223.00
2023-09-22T11:47:01.096Z,101234.00
2023-09-22T11:49:38.634Z,101230.00
2023-09-22T11:52:09.154Z,101221.00
2023-09-22T11:54:37.931Z,101219.00
2023-09-22T11:57:07.920Z,101215.00
2023-09-22T11:59:38.401Z,101218.00
2023-09-22T12:02:08.107Z,101215.00
2023-09-22T12:04:39.797Z,101200.00
2023-09-22T12:07:11.333Z,101206.00
2023-09-22T12:09:41.323Z,101217.00
2023-09-22T12:12:11.318Z,101206.00
2023-09-22T12:14:41.890Z,101209.00
2023-09-22T12:17:11.282Z,101204.00
2023-09-22T12:19:41.832Z,101208.00
2023-09-22T12:22:12.065Z,101209.00
2023-09-22T12:24:41.138Z,101199.00
2023-09-22T12:27:10.033Z,101201.00
2023-09-22T12:29:38.869Z,101193.00
2023-09-22T12:32:09.001Z,101190.00
2023-09-22T12:34:38.061Z,101188.00
2023-09-22T12:37:07.315Z,101191.00
2023-09-22T12:39:37.824Z,101194.00
2023-09-22T12:42:07.252Z,101184.00
2023-09-22T12:44:37.026Z,101177.00
2023-09-22T12:47:09.531Z,101191.00
2023-09-22T12:49:39.361Z,101182.00
2023-09-22T12:52:09.081Z,101177.00
2023-09-22T12:54:39.249Z,101170.00
2023-09-22T12:57:08.584Z,101160.00
2023-09-22T12:59:37.336Z,101162.00
2023-09-22T13:02:08.739Z,101160.00
2023-09-22T13:04:37.598Z,101157.00
2023-09-22T13:07:06.532Z,101150.00
2023-09-22T13:09:35.688Z,101148.00
2023-09-22T13:12:06.104Z,101153.00
2023-09-22T13:14:34.946Z,101144.00
2023-09-22T13:17:03.895Z,101143.00
2023-09-22T13:19:36.785Z,101139.00
2023-09-22T13:22:08.424Z,101135.00
2023-09-22T13:24:38.610Z,101131.00
2023-09-22T13:27:10.108Z,101134.00
2023-09-22T13:29:40.520Z,101128.00
2023-09-22T13:32:10.881Z,101131.00
2023-09-22T13:34:41.555Z,101131.00
2023-09-22T13:37:11.246Z,101116.00
2023-09-22T13:39:40.230Z,101112.00
2023-09-22T13:42:12.561Z,101116.00
2023-09-22T13:44:41.817Z,101112.00
2023-09-22T13:47:10.641Z,101112.00
2023-09-22T13:49:40.027Z,101110.00
2023-09-22T13:52:09.229Z,101105.00
2023-09-22T13:54:37.987Z,101111.00
2023-09-22T13:57:06.890Z,101101.00
2023-09-22T13:59:37.682Z,101109.00
2023-09-22T14:02:08.486Z,101106.00
2023-09-22T14:04:37.418Z,101094.00
2023-09-22T14:07:06.251Z,101099.00
2023-09-22T14:09:35.654Z,101093.00
2023-09-22T14:12:04.941Z,101105.00
2023-09-22T14:14:34.300Z,101099.00
2023-09-22T14:17:04.733Z,101101.00
2023-09-22T14:19:34.552Z,101099.00
2023-09-22T14:22:04.516Z,101095.00
2023-09-22T14:24:33.235Z,101096.00
2023-09-22T14:27:02.005Z,101101.00
2023-09-22T14:29:30.880Z,101102.00
2023-09-22T14:31:59.800Z,101092.00
2023-09-22T14:34:30.245Z,101092.00
2023-09-22T14:36:59.129Z,101091.00
2023-09-22T14:39:28.471Z,101103.00
2023-09-22T14:41:57.246Z,101101.00
2023-09-22T14:44:26.136Z,101096.00
2023-09-22T14:46:55.777Z,101101.00
2023-09-22T14:49:24.658Z,101101.00
2023-09-22T14:51:55.090Z,101106.00
2023-09-22T14:54:23.859Z,101100.00
2023-09-22T14:56:52.638Z,101109.00
2023-09-22T14:59:21.716Z,101094.00
2023-09-22T15:01:50.646Z,101105.00
2023-09-22T15:04:19.637Z,101101.00
2023-09-22T15:06:48.555Z,101106.00
2023-09-22T15:09:19.269Z,101108.00
2023-09-22T15:11:48.129Z,101105.00
2023-09-22T15:14:18.216Z,101105.00
2023-09-22T15:16:47.007Z,101105.00
2023-09-22T15:19:16.105Z,101107.00
2023-09-22T15:21:44.924Z,101107.00
2023-09-22T15:24:13.765Z,101108.00
2023-09-22T15:26:43.998Z,101106.00
2023-09-22T15:29:12.823Z,101102.00
2023-09-22T15:31:42.264Z,101096.00
2023-09-22T15:34:15.346Z,101105.00
2023-09-22T15:36:44.454Z,101087.00
2023-09-22T15:39:14.371Z,101094.00
2023-09-22T15:41:45.075Z,101088.00
2023-09-22T15:44:14.530Z,101096.00
2023-09-22T15:46:43.837Z,101090.00
2023-09-22T15:49:13.208Z,101090.00
2023-09-22T15:51:41.943Z,101095.00
2023-09-22T15:54:12.715Z,101088.00
2023-09-22T15:56:43.810Z,101086.00
2023-09-22T15:59:13.950Z,101085.00
2023-09-22T16:01:54.858Z,101082.00
2023-09-22T16:04:23.735Z,101081.00
2023-09-22T16:06:54.786Z,101085.00
2023-09-22T16:09:26.908Z,101074.00
2023-09-22T16:11:57.344Z,101080.00
2023-09-22T16:14:27.605Z,101073.00
2023-09-22T16:16:57.700Z,101073.00
2023-09-22T16:19:26.774Z,101074.00
2023-09-22T16:21:55.898Z,101079.00
2023-09-22T16:24:24.733Z,101080.00
2023-09-22T16:26:53.555Z,101077.00
2023-09-22T16:29:27.669Z,101079.00
2023-09-22T16:31:58.854Z,101086.00
2023-09-22T16:34:30.503Z,101081.00
2023-09-22T16:36:59.646Z,101084.00
2023-09-22T16:39:28.518Z,101085.00
2023-09-22T16:41:57.515Z,101083.00
2023-09-22T16:44:26.286Z,101093.00
2023-09-22T16:46:55.138Z,101091.00
2023-09-22T16:49:25.585Z,101087.00
2023-09-22T16:51:54.662Z,101090.00
2023-09-22T16:54:23.347Z,101093.00
2023-09-22T16:56:52.678Z,101094.00
2023-09-22T16:59:22.444Z,101102.00
2023-09-22T17:01:51.482Z,101095.00
2023-09-22T17:04:22.564Z,101101.00
2023-09-22T17:06:52.706Z,101087.00
2023-09-22T17:09:21.565Z,101105.00
2023-09-22T17:11:50.423Z,101102.00
2023-09-22T17:14:53.291Z,101102.00
2023-09-22T17:17:23.844Z,101104.00
2023-09-22T17:19:57.084Z,101105.00
2023-09-22T17:22:29.016Z,101106.00
2023-09-22T17:24:57.974Z,101102.00
2023-09-22T17:27:27.160Z,101104.00
2023-09-22T17:29:56.145Z,101104.00
2023-09-22T17:32:32.451Z,101102.00
2023-09-22T17:35:03.233Z,101105.00
2023-09-22T17:37:38.434Z,101108.00
2023-09-22T17:40:13.482Z,101104.00
2023-09-22T17:42:42.428Z,101099.00
2023-09-22T17:45:22.430Z,101108.00
2023-09-22T17:47:51.851Z,101110.00
2023-09-22T17:50:21.095Z,101112.00
2023-09-22T17:52:52.904Z,101117.00
2023-09-22T17:55:22.917Z,101117.00
2023-09-22T17:57:51.712Z,101103.00
2023-09-22T18:00:25.198Z,101096.00
2023-09-22T18:02:58.050Z,101096.00
2023-09-22T18:05:28.021Z,101096.00
2023-09-22T18:07:58.640Z,101096.00
2023-09-22T18:10:28.850Z,101105.00
2023-09-22T18:13:10.194Z,101096.00
2023-09-22T18:15:39.356Z,101090.00
2023-09-22T18:18:12.337Z,101091.00
2023-09-22T18:20:41.650Z,101101.00
2023-09-22T18:23:12.852Z,101103.00
2023-09-22T18:25:42.662Z,101099.00
2023-09-22T18:28:11.654Z,101096.00
2023-09-22T18:30:41.596Z,101090.00
2023-09-22T18:33:11.006Z,101088.00
2023-09-22T18:35:40.739Z,101085.00
2023-09-22T18:38:09.796Z,101089.00
2023-09-22T18:40:39.996Z,101080.00
2023-09-22T18:43:09.755Z,101081.00
2023-09-22T18:45:39.883Z,101075.00
2023-09-22T18:48:09.268Z,101081.00
2023-09-22T18:50:38.687Z,101086.00
2023-09-22T18:53:07.884Z,101086.00
2023-09-22T18:55:38.044Z,101084.00
2023-09-22T18:58:13.976Z,101074.00
2023-09-22T19:00:50.793Z,101080.00
2023-09-22T19:03:24.423Z,101079.00
2023-09-22T19:05:55.130Z,101081.00
2023-09-22T19:08:27.473Z,101078.00
2023-09-22T19:11:07.146Z,101071.00
2023-09-22T19:14:03.018Z,101068.00
2023-09-22T19:16:35.738Z,101065.00
2023-09-22T19:19:05.457Z,101061.00
2023-09-22T19:21:41.019Z,101068.00
2023-09-22T19:24:16.264Z,101066.00
2023-09-22T19:29:38.392Z,101064.00
2023-09-22T19:32:07.241Z,101079.00
2023-09-22T19:34:42.723Z,101065.00
2023-09-22T19:37:13.392Z,101073.00
2023-09-22T19:39:42.442Z,101058.00
2023-09-22T19:42:11.902Z,101062.00
2023-09-22T19:44:42.109Z,101066.00
2023-09-22T19:47:12.721Z,101066.00
2023-09-22T19:49:41.463Z,101063.00
2023-09-22T19:52:11.131Z,101062.00
2023-09-22T19:54:40.893Z,101061.00
2023-09-22T19:57:13.140Z,101052.00
2023-09-22T19:59:48.332Z,101056.00
2023-09-22T20:02:18.393Z,101053.00
2023-09-22T20:04:47.753Z,101055.00
2023-09-22T20:07:16.772Z,101057.00
2023-09-22T20:09:46.216Z,101053.00
2023-09-22T20:12:15.483Z,101051.00
2023-09-22T20:14:47.436Z,101053.00
2023-09-22T20:17:16.333Z,101053.00
2023-09-22T20:19:46.573Z,101057.00
2023-09-22T20:22:15.625Z,101049.00
2023-09-22T20:24:44.381Z,101056.00
2023-09-22T20:27:13.277Z,101044.00
2023-09-22T20:29:42.140Z,101051.00
2023-09-22T20:32:13.329Z,101054.00
2023-09-22T20:34:42.344Z,101047.00
2023-09-22T20:37:11.776Z,101048.00
2023-09-22T20:39:40.695Z,101039.00
2023-09-22T20:42:09.410Z,101045.00
2023-09-22T20:44:38.205Z,101044.00
2023-09-22T20:47:11.290Z,101049.00
2023-09-22T20:49:43.428Z,101046.00
2023-09-22T20:52:12.339Z,101039.00
2023-09-22T20:54:41.131Z,101043.00
2023-09-22T20:57:10.021Z,101043.00
2023-09-22T20:59:40.203Z,101038.00
2023-09-22T21:02:11.824Z,101037.00
2023-09-22T21:04:42.169Z,101032.00
2023-09-22T21:07:11.641Z,101037.00
2023-09-22T21:09:40.537Z,101028.00
2023-09-22T21:12:09.653Z,101033.00
2023-09-22T21:14:38.440Z,101023.00
2023-09-22T21:17:07.356Z,101019.00
2023-09-22T21:19:36.269Z,101019.00
2023-09-22T21:22:06.365Z,101020.00
2023-09-22T21:24:35.163Z,101012.00
2023-09-22T21:27:04.990Z,101023.00
2023-09-22T21:29:34.031Z,101020.00
2023-09-22T21:32:02.796Z,101013.00
2023-09-22T21:34:31.666Z,101018.00
2023-09-22T21:37:00.506Z,101019.00
2023-09-22T21:39:31.023Z,101019.00
2023-09-22T21:41:59.756Z,101010.00
2023-09-22T21:44:28.525Z,101018.00
2023-09-22T21:46:57.346Z,101007.00
2023-09-22T21:49:26.060Z,101009.00
2023-09-22T21:51:54.872Z,101013.00
2023-09-22T21:54:23.843Z,101010.00
2023-09-22T21:56:53.934Z,101009.00
2023-09-22T21:59:23.001Z,101016.00
2023-09-22T22:01:52.048Z,101012.00
2023-09-22T22:04:20.884Z,101006.00
2023-09-22T22:06:52.217Z,101012.00
2023-09-22T22:09:21.326Z,101009.00
2023-09-22T22:11:50.691Z,101010.00
2023-09-22T22:14:20.949Z,101016.00
2023-09-22T22:16:50.588Z,101009.00
2023-09-22T22:19:20.752Z,101012.00
2023-09-22T22:21:51.344Z,101003.00
2023-09-22T22:24:22.895Z,101003.00
2023-09-22T22:26:53.272Z,101007.00
2023-09-22T22:29:23.506Z,101001.00
2023-09-22T22:31:52.453Z,101009.00
2023-09-22T22:34:22.383Z,100994.00
2023-09-22T22:36:52.143Z,101001.00
2023-09-22T22:39:21.107Z,100999.00
2023-09-22T22:41:49.874Z,101010.00
2023-09-22T22:44:19.204Z,100999.00
2023-09-22T22:46:50.329Z,101004.00
2023-09-22T22:49:19.145Z,101001.00
2023-09-22T22:51:48.377Z,100999.00
2023-09-22T22:54:17.184Z,100997.00
2023-09-22T22:56:45.948Z,101001.00
2023-09-22T22:59:15.335Z,100994.00
2023-09-22T23:01:45.250Z,100989.00
2023-09-22T23:04:16.165Z,100995.00
2023-09-22T23:06:45.026Z,100991.00
2023-09-22T23:09:15.628Z,100989.00
2023-09-22T23:11:45.347Z,100994.00
2023-09-22T23:14:18.616Z,100991.00
2023-09-22T23:16:49.145Z,100981.00
2023-09-22T23:19:20.176Z,100980.00
2023-09-22T23:21:51.882Z,100976.00
2023-09-22T23:24:20.654Z,100986.00
2023-09-22T23:26:49.467Z,100984.00
2023-09-22T23:29:18.242Z,100985.00
2023-09-22T23:31:47.297Z,100977.00
2023-09-22T23:34:17.282Z,100983.00
2023-09-22T23:36:48.748Z,100980.00
2023-09-22T23:39:17.760Z,100975.00
2023-09-22T23:41:46.532Z,100985.00
2023-09-22T23:44:15.298Z,100969.00
2023-09-22T23:46:45.371Z,100975.00
2023-09-22T23:49:16.020Z,100982.00
2023-09-22T23:51:46.969Z,100981.00
2023-09-22T23:54:16.999Z,100971.00
2023-09-22T23:56:46.814Z,100964.00
2023-09-22T23:59:15.587Z,100967.00
